地図

経路データ

SID SEASON NUMBER BASIN SUBBASIN NAME ISO_TIME NATURE LAT LON WMO_WIND WMO_PRES WMO_AGENCY TRACK_TYPE DIST2LAND LANDFALL IFLAG USA_AGENCY USA_ATCF_ID USA_LAT USA_LON USA_RECORD USA_STATUS USA_WIND USA_PRES USA_SSHS USA_R34_NE USA_R34_SE USA_R34_SW USA_R34_NW USA_R50_NE USA_R50_SE USA_R50_SW USA_R50_NW USA_R64_NE USA_R64_SE USA_R64_SW USA_R64_NW USA_POCI USA_ROCI USA_RMW USA_EYE TOKYO_LAT TOKYO_LON TOKYO_GRADE TOKYO_WIND TOKYO_PRES TOKYO_R50_DIR TOKYO_R50_LONG TOKYO_R50_SHORT TOKYO_R30_DIR TOKYO_R30_LONG TOKYO_R30_SHORT TOKYO_LAND CMA_LAT CMA_LON CMA_CAT CMA_WIND CMA_PRES HKO_LAT HKO_LON HKO_CAT HKO_WIND HKO_PRES NEWDELHI_LAT NEWDELHI_LON NEWDELHI_GRADE NEWDELHI_WIND NEWDELHI_PRES NEWDELHI_CI NEWDELHI_DP NEWDELHI_POCI REUNION_LAT REUNION_LON REUNION_TYPE REUNION_WIND REUNION_PRES REUNION_TNUM REUNION_CI REUNION_RMW REUNION_R34_NE REUNION_R34_SE REUNION_R34_SW REUNION_R34_NW REUNION_R50_NE REUNION_R50_SE REUNION_R50_SW REUNION_R50_NW REUNION_R64_NE REUNION_R64_SE REUNION_R64_SW REUNION_R64_NW BOM_LAT BOM_LON BOM_TYPE BOM_WIND BOM_PRES BOM_TNUM BOM_CI BOM_RMW BOM_R34_NE BOM_R34_SE BOM_R34_SW BOM_R34_NW BOM_R50_NE BOM_R50_SE BOM_R50_SW BOM_R50_NW BOM_R64_NE BOM_R64_SE BOM_R64_SW BOM_R64_NW BOM_ROCI BOM_POCI BOM_EYE BOM_POS_METHOD BOM_PRES_METHOD NADI_LAT NADI_LON NADI_CAT NADI_WIND NADI_PRES WELLINGTON_LAT WELLINGTON_LON WELLINGTON_WIND WELLINGTON_PRES DS824_LAT DS824_LON DS824_STAGE DS824_WIND DS824_PRES TD9636_LAT TD9636_LON TD9636_STAGE TD9636_WIND TD9636_PRES TD9635_LAT TD9635_LON TD9635_WIND TD9635_PRES TD9635_ROCI NEUMANN_LAT NEUMANN_LON NEUMANN_CLASS NEUMANN_WIND NEUMANN_PRES MLC_LAT MLC_LON MLC_CLASS MLC_WIND MLC_PRES USA_GUST BOM_GUST BOM_GUST_PER REUNION_GUST REUNION_GUST_PER USA_SEAHGT USA_SEARAD_NE USA_SEARAD_SE USA_SEARAD_SW USA_SEARAD_NW STORM_SPEED STORM_DIR
1969241N28281 1969 65 NA NA NOT_NAMED 1969-08-29 00:00:00 TS 27.5000 -79.1000 25 hurdat_atl main 113 81 O_____________ hurdat_atl AL141969 27.5000 -79.1000 TD 25 -1 8 279
1969241N28281 1969 65 NA NA NOT_NAMED 1969-08-29 03:00:00 TS 27.5628 -79.5648 main 72 37 P_____________ AL141969 27.5628 -79.5648 TD 25 -1 8 277
1969241N28281 1969 65 NA NA NOT_NAMED 1969-08-29 06:00:00 TS 27.6000 -80.0000 25 hurdat_atl main 37 0 O_____________ hurdat_atl AL141969 27.6000 -80.0000 TD 25 -1 7 273
1969241N28281 1969 65 NA NA NOT_NAMED 1969-08-29 09:00:00 TS 27.5999 -80.3801 main 0 0 P_____________ AL141969 27.5999 -80.3801 TD 25 -1 6 270
1969241N28281 1969 65 NA NA NOT_NAMED 1969-08-29 12:00:00 TS 27.6000 -80.7000 25 hurdat_atl main 0 0 O_____________ hurdat_atl AL141969 27.6000 -80.7000 TD 25 -1 5 275
1969241N28281 1969 65 NA NA NOT_NAMED 1969-08-29 15:00:00 TS 27.6422 -80.9425 main 0 0 P_____________ AL141969 27.6422 -80.9425 TD 25 -1 5 283
1969241N28281 1969 65 NA NA NOT_NAMED 1969-08-29 18:00:00 TS 27.7000 -81.2000 25 hurdat_atl main 0 0 O_____________ hurdat_atl AL141969 27.7000 -81.2000 TD 25 -1 6 281
1969241N28281 1969 65 NA NA NOT_NAMED 1969-08-29 21:00:00 TS 27.7502 -81.6000 main 0 0 P_____________ AL141969 27.7502 -81.6000 TD 25 -1 7 278
1969241N28281 1969 65 NA NA NOT_NAMED 1969-08-30 00:00:00 TS 27.8000 -82.0000 25 hurdat_atl main 0 0 O_____________ hurdat_atl AL141969 27.8000 -82.0000 TD 25 -1 6 280
1969241N28281 1969 65 NA NA NOT_NAMED 1969-08-30 03:00:00 TS 27.8498 -82.2726 main 0 0 P_____________ AL141969 27.8498 -82.2726 TD 25 -1 5 283
1969241N28281 1969 65 NA GM NOT_NAMED 1969-08-30 06:00:00 TS 27.9000 -82.5000 25 hurdat_atl main 0 0 O_____________ hurdat_atl AL141969 27.9000 -82.5000 TD 25 -1 4 283
1969241N28281 1969 65 NA NA NOT_NAMED 1969-08-30 09:00:00 TS 27.9500 -82.7575 main 0 0 P_____________ AL141969 27.9500 -82.7575 TD 25 -1 5 283
1969241N28281 1969 65 NA GM NOT_NAMED 1969-08-30 12:00:00 TS 28.0000 -83.0000 25 hurdat_atl main 14 14 O_____________ hurdat_atl AL141969 28.0000 -83.0000 TD 25 -1 4 285
1969241N28281 1969 65 NA GM NOT_NAMED 1969-08-30 15:00:00 TS 28.0499 -83.1926 main 31 31 P_____________ AL141969 28.0499 -83.1926 TD 25 -1 4 286
1969241N28281 1969 65 NA GM NOT_NAMED 1969-08-30 18:00:00 TS 28.1000 -83.4000 25 hurdat_atl main 53 53 O_____________ hurdat_atl AL141969 28.1000 -83.4000 TD 25 -1 4 284
1969241N28281 1969 65 NA GM NOT_NAMED 1969-08-30 21:00:00 TS 28.1498 -83.6625 main 81 81 P_____________ AL141969 28.1498 -83.6625 TD 25 -1 5 281
1969241N28281 1969 65 NA GM NOT_NAMED 1969-08-31 00:00:00 TS 28.2000 -84.0000 25 hurdat_atl main 112 112 O_____________ hurdat_atl AL141969 28.2000 -84.0000 TD 25 -1 7 278
1969241N28281 1969 65 NA GM NOT_NAMED 1969-08-31 03:00:00 TS 28.2504 -84.4724 main 161 156 P_____________ AL141969 28.2504 -84.4724 TD 25 -1 8 277
1969241N28281 1969 65 NA GM NOT_NAMED 1969-08-31 06:00:00 TS 28.3000 -84.9000 25 hurdat_atl main 156 156 O_____________ hurdat_atl AL141969 28.3000 -84.9000 TD 25 -1 5 280
1969241N28281 1969 65 NA GM NOT_NAMED 1969-08-31 09:00:00 TS 28.3420 -85.0577 main 156 145 P_____________ AL141969 28.3420 -85.0577 TD 25 -1 3 291
1969241N28281 1969 65 NA GM NOT_NAMED 1969-08-31 12:00:00 TS 28.4000 -85.2000 25 hurdat_atl main 145 133 O_____________ hurdat_atl AL141969 28.4000 -85.2000 TD 25 -1 5 288
1969241N28281 1969 65 NA GM NOT_NAMED 1969-08-31 15:00:00 TS 28.4850 -85.5476 main 134 128 P_____________ AL141969 28.4850 -85.5476 TD 25 -1 7 286
1969241N28281 1969 65 NA GM NOT_NAMED 1969-08-31 18:00:00 TS 28.6000 -86.0000 25 hurdat_atl main 135 135 O_____________ hurdat_atl AL141969 28.6000 -86.0000 TD 25 -1 9 287
1969241N28281 1969 65 NA GM NOT_NAMED 1969-08-31 21:00:00 TS 28.7428 -86.4922 main 154 146 P_____________ AL141969 28.7428 -86.4922 TD -1 9 289
1969241N28281 1969 65 NA GM NOT_NAMED 1969-09-01 00:00:00 TS 28.9000 -87.0000 hurdat_atl main 157 O_____________ hurdat_atl AL141969 28.9000 -87.0000 TD -1 9 289

IBTrACS Databaseについて

本データベースは、米国NOAAが公開する1842年以降の世界の熱帯低気圧のベストトラックデータアーカイブInternational Best Track Archive for Climate Stewardship (IBTrACS)を、ウェブで閲覧しやすい形式に変換したものです。

最終更新日:2021-12-03